Time;durP1;ratioP1;P1;durP2;ratioP2;P2;SDS_P1;SDS_P2;PMS_P1;PMS_P2;Temp;Humidity;BMP_temperature;BMP_pressure;BME280_temperature;BME280_humidity;BME280_pressure;Samples;Min_cycle;Max_cycle;Signal;HPM_P1;HPM_P2
2023/03/16 00:04:11;;;;;;;10.85;6.20;;;;;;;1.02;59.86;100894.09;10434537;28;20492;-74
2023/03/16 00:09:13;;;;;;;15.05;6.10;;;;;;;1.06;59.51;100890.41;10434171;28;20041;-75
2023/03/16 00:14:17;;;;;;;11.00;5.88;;;;;;;1.10;59.47;100884.09;10443289;28;20064;-75
2023/03/16 00:19:21;;;;;;;8.65;5.78;;;;;;;1.12;59.37;100881.41;10440318;28;20040;-75
2023/03/16 00:24:24;;;;;;;10.13;5.18;;;;;;;1.09;59.63;100885.00;10448420;28;20037;-75
2023/03/16 00:29:28;;;;;;;8.05;4.57;;;;;;;1.00;59.91;100886.19;10437274;28;20131;-75
2023/03/16 00:34:33;;;;;;;12.13;4.90;;;;;;;0.95;60.03;100896.03;10449533;28;20045;-75
2023/03/16 00:39:36;;;;;;;10.75;5.10;;;;;;;0.98;60.06;100903.88;10421911;28;20404;-75
2023/03/16 00:44:41;;;;;;;10.13;5.45;;;;;;;0.88;59.52;100897.19;10439786;28;20060;-75
2023/03/16 00:49:44;;;;;;;14.63;5.72;;;;;;;0.91;59.93;100890.94;10428302;28;20073;-73
2023/03/16 00:54:47;;;;;;;11.07;5.80;;;;;;;0.90;59.58;100882.09;10428053;28;20554;-74
2023/03/16 00:59:52;;;;;;;10.07;4.85;;;;;;;0.90;59.58;100873.31;10440235;28;20130;-75
2023/03/16 01:04:55;;;;;;;9.30;4.70;;;;;;;0.87;59.86;100871.63;10422016;28;20064;-75
2023/03/16 01:10:00;;;;;;;11.02;5.43;;;;;;;0.87;59.96;100853.13;10444023;28;20038;-75
2023/03/16 01:15:06;;;;;;;11.68;4.60;;;;;;;0.74;60.37;100844.75;10428897;28;20047;-74
2023/03/16 01:20:13;;;;;;;8.85;4.65;;;;;;;0.73;60.65;100856.22;10424994;28;20060;-75
2023/03/16 01:25:17;;;;;;;12.75;5.03;;;;;;;0.72;60.79;100848.34;10421479;28;20048;-75
2023/03/16 01:30:21;;;;;;;13.45;4.97;;;;;;;0.61;61.00;100851.34;10447093;28;20063;-75
2023/03/16 01:35:24;;;;;;;11.93;4.93;;;;;;;0.61;60.94;100849.56;10424739;28;20052;-74
2023/03/16 01:40:27;;;;;;;9.23;4.30;;;;;;;0.65;61.04;100849.44;10422111;28;20051;-74
2023/03/16 01:46:12;;;;;;;8.07;4.15;;;;;;;0.64;61.01;100845.09;10426462;28;20044;-75
2023/03/16 01:51:23;;;;;;;11.20;4.55;;;;;;;0.56;61.21;100842.69;10422821;28;20342;-74
2023/03/16 01:56:29;;;;;;;9.07;4.20;;;;;;;0.51;61.41;100826.97;10443971;28;20036;-75
2023/03/16 02:01:34;;;;;;;10.35;4.22;;;;;;;0.41;61.43;100817.59;10439006;28;20095;-75
2023/03/16 02:06:38;;;;;;;10.32;3.95;;;;;;;0.36;61.64;100806.31;10417029;28;20068;-75
2023/03/16 02:11:41;;;;;;;7.38;4.15;;;;;;;0.21;61.92;100799.72;10421766;28;20073;-75
2023/03/16 02:16:49;;;;;;;7.47;3.80;;;;;;;0.19;62.50;100790.97;10434396;28;20041;-75
2023/03/16 02:21:58;;;;;;;5.60;3.67;;;;;;;0.21;62.62;100785.66;10431971;28;20080;-75
2023/03/16 02:27:04;;;;;;;10.13;3.88;;;;;;;0.06;62.95;100777.31;10435882;28;20038;-75
2023/03/16 02:32:12;;;;;;;8.30;4.07;;;;;;;0.06;63.25;100782.59;10423363;28;20477;-74
2023/03/16 02:37:15;;;;;;;7.15;3.80;;;;;;;-0.03;63.47;100780.22;10433440;28;20128;-75
2023/03/16 02:42:21;;;;;;;6.53;3.80;;;;;;;0.06;63.04;100771.16;10429530;28;20044;-75
2023/03/16 02:47:33;;;;;;;12.70;4.15;;;;;;;-0.04;63.41;100757.38;10407368;28;20072;-75
2023/03/16 02:52:38;;;;;;;7.57;4.15;;;;;;;0.02;63.14;100762.44;10443430;28;20048;-75
2023/03/16 02:57:41;;;;;;;15.43;4.38;;;;;;;-0.11;63.61;100762.00;10436999;28;20084;-75
2023/03/16 03:02:51;;;;;;;12.32;4.68;;;;;;;-0.14;63.69;100755.91;10418296;28;20046;-75
2023/03/16 03:07:54;;;;;;;9.98;5.20;;;;;;;-0.04;63.33;100754.72;10422747;28;20389;-75
2023/03/16 03:12:57;;;;;;;8.63;4.60;;;;;;;-0.03;63.18;100752.94;10402125;28;20144;-75
2023/03/16 03:18:02;;;;;;;11.13;4.93;;;;;;;-0.30;64.11;100740.56;10419767;28;20041;-74
2023/03/16 03:23:06;;;;;;;10.98;5.63;;;;;;;-0.19;63.98;100744.63;10415608;28;20073;-75
2023/03/16 03:28:10;;;;;;;8.82;4.65;;;;;;;-0.17;63.93;100748.94;10442295;28;20061;-75
2023/03/16 03:33:14;;;;;;;10.13;5.07;;;;;;;-0.42;63.83;100755.88;10427323;28;20053;-75
2023/03/16 03:38:17;;;;;;;11.48;5.68;;;;;;;-0.18;63.78;100770.13;10421140;28;20041;-75
2023/03/16 03:43:21;;;;;;;9.18;5.25;;;;;;;-0.17;63.48;100763.94;10420766;28;20419;-75
2023/03/16 03:48:27;;;;;;;7.90;5.05;;;;;;;-0.31;63.61;100754.66;10430507;23;20067;-75
2023/03/16 03:53:31;;;;;;;14.20;5.70;;;;;;;-0.24;63.41;100752.72;10428446;28;20049;-75
2023/03/16 03:58:54;;;;;;;11.82;5.50;;;;;;;-0.30;63.38;100744.97;10379021;28;20133;-75
2023/03/16 04:04:17;;;;;;;11.32;5.88;;;;;;;-0.29;63.01;100742.28;10406436;28;20050;-75
2023/03/16 04:09:20;;;;;;;11.02;5.38;;;;;;;-0.34;63.90;100727.50;10394816;28;20048;-76
2023/03/16 04:14:23;;;;;;;16.45;7.03;;;;;;;-0.42;63.70;100733.00;10397505;28;20468;-75
2023/03/16 04:19:28;;;;;;;11.15;5.32;;;;;;;-0.30;63.40;100737.06;10401269;28;20129;-76
2023/03/16 04:24:33;;;;;;;11.50;5.60;;;;;;;-0.40;63.46;100740.88;10394747;28;20041;-75
2023/03/16 04:29:37;;;;;;;9.80;5.10;;;;;;;-0.36;63.58;100731.94;10395603;28;20105;-76
2023/03/16 04:34:42;;;;;;;10.95;4.97;;;;;;;-0.32;63.69;100741.50;10369420;28;20125;-76
2023/03/16 04:39:47;;;;;;;10.75;4.78;;;;;;;-0.28;63.06;100735.22;10391415;28;20074;-76
2023/03/16 04:44:50;;;;;;;9.57;4.65;;;;;;;-0.29;63.25;100733.50;10398742;28;20528;-76
2023/03/16 04:49:57;;;;;;;14.13;5.50;;;;;;;-0.21;63.56;100742.03;10389300;28;20060;-74
2023/03/16 04:55:00;;;;;;;11.77;6.00;;;;;;;-0.18;63.42;100746.38;10395441;28;20412;-75
2023/03/16 05:00:10;;;;;;;11.95;5.78;;;;;;;-0.11;63.19;100740.88;10405164;28;20050;-76
2023/03/16 05:05:21;;;;;;;10.48;5.53;;;;;;;-0.03;63.15;100734.44;10393809;28;20045;-74
2023/03/16 05:10:25;;;;;;;11.13;5.35;;;;;;;0.12;62.41;100726.91;10411735;28;20132;-76
2023/03/16 05:15:28;;;;;;;13.98;5.35;;;;;;;0.12;62.61;100724.28;10408400;28;20042;-76
2023/03/16 05:20:41;;;;;;;8.50;4.63;;;;;;;-0.03;63.36;100719.47;10401120;28;20060;-76
2023/03/16 05:25:43;;;;;;;7.32;4.90;;;;;;;0.15;63.06;100718.88;10414780;28;20041;-76
2023/03/16 05:30:51;;;;;;;9.45;5.18;;;;;;;0.07;63.48;100705.06;10391743;28;20141;-76
2023/03/16 05:36:01;;;;;;;14.15;6.30;;;;;;;0.08;63.64;100714.72;10405251;28;20046;-76
2023/03/16 05:41:05;;;;;;;13.48;5.40;;;;;;;-0.05;63.48;100713.41;10396057;28;20084;-75
2023/03/16 05:46:28;;;;;;;9.63;6.32;;;;;;;0.12;63.63;100704.91;10393504;28;20041;-76
2023/03/16 05:51:34;;;;;;;12.15;5.75;;;;;;;0.27;63.70;100692.97;10408270;28;20043;-76
2023/03/16 05:56:39;;;;;;;11.90;6.47;;;;;;;0.29;63.34;100689.38;10409513;28;20120;-75
2023/03/16 06:01:42;;;;;;;11.93;5.95;;;;;;;0.28;63.52;100692.94;10391100;28;20160;-75
2023/03/16 06:06:47;;;;;;;9.48;5.68;;;;;;;0.44;63.31;100690.66;10405286;28;20446;-76
2023/03/16 06:12:00;;;;;;;11.98;5.63;;;;;;;0.65;62.94;100696.09;10389236;28;20050;-76
2023/03/16 06:17:04;;;;;;;9.10;5.25;;;;;;;0.52;63.10;100690.34;10388350;28;20046;-76
2023/03/16 06:22:09;;;;;;;13.57;5.82;;;;;;;0.42;64.26;100681.88;10395031;28;20049;-75
2023/03/16 06:27:13;;;;;;;10.18;5.53;;;;;;;0.73;63.26;100672.88;10395268;28;20552;-76
2023/03/16 06:32:32;;;;;;;10.27;5.20;;;;;;;0.86;63.17;100675.97;10395980;28;20041;-75
2023/03/16 06:37:36;;;;;;;13.15;6.05;;;;;;;0.90;63.19;100674.91;10389252;28;20125;-76
2023/03/16 06:42:53;;;;;;;16.35;6.15;;;;;;;1.02;62.98;100674.50;10370626;28;20030;-75
2023/03/16 06:47:56;;;;;;;13.98;7.20;;;;;;;1.11;62.90;100675.94;10386517;28;20042;-75
2023/03/16 06:53:01;;;;;;;14.35;6.03;;;;;;;1.30;62.38;100684.03;10384056;28;20045;-76
2023/03/16 06:58:06;;;;;;;10.80;5.68;;;;;;;1.58;61.24;100684.69;10396208;28;20073;-75
2023/03/16 07:03:09;;;;;;;12.52;6.10;;;;;;;1.72;60.72;100690.31;10403139;28;20054;-75
2023/03/16 07:08:17;;;;;;;11.63;5.47;;;;;;;2.12;59.89;100699.31;10390109;28;20049;-76
2023/03/16 07:13:20;;;;;;;12.75;5.82;;;;;;;2.24;59.20;100694.44;10394585;28;20449;-76
2023/03/16 07:18:24;;;;;;;12.35;4.85;;;;;;;2.58;58.04;100696.59;10412845;28;20059;-76
2023/03/16 07:23:29;;;;;;;12.27;5.43;;;;;;;2.76;57.68;100693.09;10388021;28;20057;-76
2023/03/16 07:28:38;;;;;;;11.43;5.10;;;;;;;3.19;57.13;100698.31;10406026;28;20049;-76
2023/03/16 07:33:42;;;;;;;9.50;4.60;;;;;;;3.61;55.00;100698.13;10398169;28;20065;-76
2023/03/16 07:38:50;;;;;;;9.23;3.53;;;;;;;3.94;54.64;100698.28;10399522;28;20033;-76
2023/03/16 07:43:53;;;;;;;5.63;3.50;;;;;;;4.15;53.63;100716.81;10391807;28;20408;-74
2023/03/16 07:48:59;;;;;;;10.30;4.25;;;;;;;3.83;53.55;100705.94;10390741;28;20132;-76
2023/03/16 07:54:04;;;;;;;7.03;3.92;;;;;;;4.10;53.31;100705.53;10391672;28;20100;-76
2023/03/16 07:59:09;;;;;;;8.10;3.42;;;;;;;4.12;52.99;100712.50;10400564;28;20046;-76
2023/03/16 08:04:12;;;;;;;9.63;3.53;;;;;;;4.05;52.55;100711.06;10386566;28;20049;-76
2023/03/16 08:09:16;;;;;;;9.55;3.53;;;;;;;4.15;52.34;100707.03;10384565;28;20034;-76
2023/03/16 08:14:19;;;;;;;3.80;3.25;;;;;;;4.60;51.24;100710.97;10408676;28;20440;-75
2023/03/16 08:19:41;;;;;;;6.47;2.93;;;;;;;4.70;51.39;100695.41;10384364;28;20100;-75
2023/03/16 08:24:47;;;;;;;7.97;3.40;;;;;;;4.81;50.93;100693.06;10391512;28;20111;-76
2023/03/16 08:29:52;;;;;;;9.50;3.42;;;;;;;5.10;50.85;100687.16;10398185;28;20038;-74
2023/03/16 08:34:59;;;;;;;7.18;2.78;;;;;;;5.16;50.30;100690.38;10396898;28;20095;-76
2023/03/16 08:40:05;;;;;;;5.45;2.95;;;;;;;5.29;48.66;100695.88;10401703;28;20512;-76
2023/03/16 08:45:09;;;;;;;4.68;2.53;;;;;;;5.38;48.62;100702.53;10387146;28;20034;-77
2023/03/16 08:50:18;;;;;;;7.00;2.60;;;;;;;5.46;47.68;100703.84;10400398;28;20045;-76
2023/03/16 08:55:23;;;;;;;5.00;2.30;;;;;;;5.86;48.06;100687.41;10410649;28;20049;-76
2023/03/16 09:00:27;;;;;;;7.53;2.92;;;;;;;5.76;47.43;100686.22;10414146;28;20053;-76
2023/03/16 09:05:31;;;;;;;5.00;2.63;;;;;;;6.12;46.97;100693.94;10401510;28;20096;-76
2023/03/16 09:10:36;;;;;;;3.35;2.10;;;;;;;6.62;46.14;100690.13;10398411;28;20643;-77
2023/03/16 09:22:50;;;;;;;5.90;2.28;;;;;;;7.06;44.48;100698.13;10402736;28;20029;-75
2023/03/16 09:27:55;;;;;;;6.97;3.03;;;;;;;7.59;44.05;100708.25;10390441;28;20504;-76
2023/03/16 09:32:58;;;;;;;6.15;2.92;;;;;;;7.69;43.41;100685.31;10397639;28;20573;-76
2023/03/16 09:38:01;;;;;;;4.05;2.75;;;;;;;8.38;43.25;100694.16;10401984;28;20117;-75
2023/03/16 09:43:30;;;;;;;6.65;2.15;;;;;;;8.29;42.61;100690.28;10390432;28;20041;-76
2023/03/16 09:48:35;;;;;;;4.30;2.88;;;;;;;8.72;42.13;100682.06;10439437;23;20049;-75
2023/03/16 09:53:39;;;;;;;5.45;3.17;;;;;;;8.43;42.09;100678.66;10427267;28;20079;-75
2023/03/16 09:58:44;;;;;;;5.65;2.78;;;;;;;8.91;41.37;100676.28;10435881;28;20041;-75
2023/03/16 10:04:05;;;;;;;4.65;2.80;;;;;;;9.51;41.35;100667.53;10431212;28;20173;-74
2023/03/16 10:09:24;;;;;;;5.90;2.65;;;;;;;9.17;41.25;100668.25;10431950;28;20041;-75
2023/03/16 10:14:37;;;;;;;6.35;3.05;;;;;;;9.01;42.46;100666.63;10428061;28;20135;-74
2023/03/16 10:19:46;;;;;;;4.63;2.85;;;;;;;9.36;40.85;100663.28;10432670;28;20442;-75
2023/03/16 10:25:01;;;;;;;3.83;2.53;;;;;;;9.13;40.81;100650.66;10424938;28;20037;-75
2023/03/16 10:30:18;;;;;;;5.80;3.55;;;;;;;9.17;40.79;100655.72;10426550;28;20064;-75
2023/03/16 10:35:31;;;;;;;4.72;2.40;;;;;;;9.48;40.64;100653.50;10431457;28;20041;-75
2023/03/16 10:40:37;;;;;;;;;;;;;;;9.55;40.73;100648.56;10424026;28;20038;-75
2023/03/16 10:45:43;;;;;;;4.28;2.40;;;;;;;9.11;41.08;100647.25;10434190;28;19927;-75
2023/03/16 10:50:50;;;;;;;6.60;2.63;;;;;;;8.78;41.15;100643.28;10429303;28;20503;-75
2023/03/16 10:55:58;;;;;;;4.88;2.53;;;;;;;9.21;42.05;100638.44;10444414;28;20368;-75
2023/03/16 11:01:02;;;;;;;4.57;2.38;;;;;;;9.34;41.00;100627.69;10430474;28;20080;-75
2023/03/16 11:06:07;;;;;;;4.32;2.33;;;;;;;9.16;41.33;100627.19;10426101;28;20053;-75
2023/03/16 11:11:14;;;;;;;6.47;2.60;;;;;;;9.66;40.44;100613.78;10447952;28;20333;-75
2023/03/16 11:16:30;;;;;;;5.85;2.65;;;;;;;9.77;40.30;100615.66;10441056;28;20037;-75
2023/03/16 11:21:43;;;;;;;4.10;2.13;;;;;;;9.22;39.74;100594.59;10438469;28;20091;-75
2023/03/16 11:26:51;;;;;;;;;;;;;;;9.41;40.72;100593.25;10448360;28;20499;-75
2023/03/16 11:31:59;;;;;;;4.68;2.47;;;;;;;9.64;39.41;100591.56;10438298;28;19927;-75
2023/03/16 11:37:12;;;;;;;4.35;2.30;;;;;;;9.34;41.25;100592.84;10444558;28;20183;-76
2023/03/16 11:42:28;;;;;;;3.45;2.33;;;;;;;8.96;41.70;100590.22;10448504;28;20406;-74
2023/03/16 11:48:01;;;;;;;4.50;2.80;;;;;;;9.20;41.38;100585.78;10429514;28;20038;-75
2023/03/16 11:53:13;;;;;;;3.72;2.30;;;;;;;8.53;41.98;100596.78;10430451;28;20056;-75
2023/03/16 11:58:30;;;;;;;4.88;3.20;;;;;;;8.70;41.33;100578.69;10424991;28;20518;-74
2023/03/16 12:03:55;;;;;;;5.85;2.50;;;;;;;8.60;41.85;100578.47;10432557;28;20319;-75
2023/03/16 12:09:14;;;;;;;3.63;2.70;;;;;;;8.48;42.14;100584.69;10428379;28;20116;-75
2023/03/16 12:14:23;;;;;;;7.35;4.55;;;;;;;8.40;42.64;100583.34;10428445;28;20048;-75
2023/03/16 12:19:41;;;;;;;4.20;2.28;;;;;;;8.82;42.39;100569.78;10432713;28;20069;-76
2023/03/16 12:24:45;;;;;;;5.20;3.20;;;;;;;8.58;42.53;100557.16;10429531;28;20392;-75
2023/03/16 12:30:00;;;;;;;6.10;2.75;;;;;;;8.92;41.75;100540.53;10435083;28;20480;-76
2023/03/16 12:35:18;;;;;;;3.72;2.50;;;;;;;8.85;41.62;100534.72;10431374;28;20489;-76
2023/03/16 12:40:31;;;;;;;4.90;2.10;;;;;;;8.75;41.15;100531.88;10434653;28;20049;-75
2023/03/16 12:45:40;;;;;;;5.10;2.63;;;;;;;8.97;40.92;100524.97;10427817;28;20081;-75
2023/03/16 12:50:50;;;;;;;5.53;2.65;;;;;;;9.55;40.75;100519.84;10436809;28;20083;-75
2023/03/16 12:55:55;;;;;;;3.03;1.98;;;;;;;10.04;39.36;100513.44;10425790;28;20542;-75
2023/03/16 13:00:59;;;;;;;2.70;2.45;;;;;;;10.44;38.13;100481.69;10439086;28;20041;-75
2023/03/16 13:06:04;;;;;;;3.38;2.10;;;;;;;11.38;37.37;100482.19;10433619;28;20095;-76
2023/03/16 13:11:09;;;;;;;3.05;2.25;;;;;;;10.86;37.08;100479.25;10409113;28;20049;-76
2023/03/16 13:16:26;;;;;;;3.38;1.85;;;;;;;10.32;38.17;100478.13;10410329;28;20053;-75
2023/03/16 13:21:38;;;;;;;2.78;2.03;;;;;;;10.32;37.95;100467.41;10403918;28;20175;-76
2023/03/16 13:26:46;;;;;;;5.28;2.08;;;;;;;9.76;37.92;100456.50;10405689;28;20446;-75
2023/03/16 13:31:49;;;;;;;3.40;2.30;;;;;;;9.55;38.57;100452.81;10409423;28;20049;-75
2023/03/16 13:36:56;;;;;;;2.33;2.13;;;;;;;9.57;39.05;100456.19;10394504;28;20053;-75
2023/03/16 13:42:03;;;;;;;3.17;2.30;;;;;;;9.33;38.59;100446.38;10410056;28;20055;-74
2023/03/16 13:47:07;;;;;;;2.60;1.90;;;;;;;9.55;38.62;100434.88;10410644;28;21231;-76
2023/03/16 13:52:19;;;;;;;3.42;2.15;;;;;;;9.50;38.14;100435.22;10403284;28;20051;-76
2023/03/16 13:57:25;;;;;;;3.83;1.90;;;;;;;9.39;37.97;100426.28;10404318;28;20111;-76
2023/03/16 14:02:28;;;;;;;2.60;1.92;;;;;;;9.48;37.88;100415.69;10394325;28;20119;-75
2023/03/16 14:07:37;;;;;;;3.83;1.50;;;;;;;9.67;37.90;100408.94;10387392;28;20048;-75
2023/03/16 14:12:50;;;;;;;1.83;1.65;;;;;;;9.56;38.39;100392.81;10400124;28;20049;-75
2023/03/16 14:18:15;;;;;;;1.75;1.65;;;;;;;9.26;37.88;100380.78;10391164;28;20046;-75
2023/03/16 14:23:23;;;;;;;2.03;1.30;;;;;;;9.85;38.26;100364.59;10411795;28;20063;-75
2023/03/16 14:28:30;;;;;;;6.63;1.77;;;;;;;9.75;37.95;100347.50;10408378;28;20044;-76
2023/03/16 14:33:36;;;;;;;1.52;1.30;;;;;;;9.70;37.50;100338.97;10395584;28;20045;-75
2023/03/16 14:38:42;;;;;;;2.15;1.20;;;;;;;9.53;37.53;100337.59;10405549;28;20475;-75
2023/03/16 14:43:48;;;;;;;4.82;1.70;;;;;;;9.70;38.16;100329.09;10403533;28;20069;-75
2023/03/16 14:48:52;;;;;;;2.22;1.10;;;;;;;9.19;36.96;100337.50;10396623;28;20508;-75
2023/03/16 14:53:56;;;;;;;1.70;1.40;;;;;;;9.09;36.51;100330.28;10404524;28;21193;-75
2023/03/16 14:58:59;;;;;;;2.05;1.20;;;;;;;9.36;36.10;100320.13;10392328;28;20427;-75
2023/03/16 15:04:02;;;;;;;1.52;1.40;;;;;;;9.31;37.80;100308.06;10384307;28;20674;-75
2023/03/16 15:09:07;;;;;;;3.30;2.25;;;;;;;9.40;39.86;100302.81;10397589;28;20053;-75
2023/03/16 15:15:13;;;;;;;5.63;2.03;;;;;;;9.39;39.59;100289.56;10385219;28;20076;-75
2023/03/16 15:19:37;;;;;;;4.60;2.22;;;;;;;9.94;39.04;100271.81;10396620;28;20171;-75
2023/03/16 15:24:41;;;;;;;;;;;;;;;9.60;39.10;100276.28;10384820;28;20054;-75
2023/03/16 15:29:44;;;;;;;3.50;2.00;;;;;;;9.31;39.75;100268.69;10383017;28;19924;-75
2023/03/16 15:34:46;;;;;;;3.90;2.15;;;;;;;9.01;39.44;100278.13;10390378;28;20098;-74
2023/03/16 15:39:51;;;;;;;4.45;1.60;;;;;;;9.07;39.75;100260.72;10386900;28;20686;-75
2023/03/16 15:44:54;;;;;;;1.60;1.33;;;;;;;9.33;40.05;100247.16;10384553;28;20528;-75
2023/03/16 15:49:56;;;;;;;5.53;2.50;;;;;;;9.68;39.13;100226.44;10388098;28;20202;-74
2023/03/16 15:55:06;;;;;;;2.33;1.70;;;;;;;10.17;38.94;100218.94;10392854;28;20451;-75
2023/03/16 16:00:25;;;;;;;4.57;2.15;;;;;;;10.21;38.53;100215.06;10407381;28;20049;-75
2023/03/16 16:05:29;;;;;;;3.30;2.33;;;;;;;9.71;38.57;100220.84;10405368;28;20415;-75
2023/03/16 16:10:34;;;;;;;6.35;2.35;;;;;;;9.56;39.00;100213.16;10394237;28;20053;-75
2023/03/16 16:15:37;;;;;;;6.43;2.80;;;;;;;9.77;38.77;100206.06;10407278;28;20658;-75
2023/03/16 16:20:40;;;;;;;2.22;1.70;;;;;;;9.35;39.06;100203.16;10405259;28;20057;-75
2023/03/16 16:25:45;;;;;;;2.17;1.60;;;;;;;9.23;38.90;100207.63;10400312;28;20079;-75
2023/03/16 16:30:48;;;;;;;3.80;1.38;;;;;;;8.87;39.12;100207.84;10408817;28;20141;-75
2023/03/16 16:35:51;;;;;;;3.35;1.30;;;;;;;8.56;39.92;100202.97;10390975;28;20045;-75
2023/03/16 16:41:00;;;;;;;5.18;1.75;;;;;;;8.46;40.42;100191.25;10392023;28;20053;-75
2023/03/16 16:46:06;;;;;;;1.75;1.50;;;;;;;8.49;40.72;100182.13;10396717;28;20045;-75
2023/03/16 16:51:17;;;;;;;2.83;1.65;;;;;;;8.43;40.94;100178.06;10392469;28;20056;-75
2023/03/16 16:56:27;;;;;;;3.05;1.60;;;;;;;8.10;41.24;100176.09;10394600;28;20056;-75
2023/03/16 17:01:33;;;;;;;3.33;2.00;;;;;;;8.22;41.41;100168.97;10413891;28;20183;-75
2023/03/16 17:06:36;;;;;;;3.42;1.63;;;;;;;8.11;41.75;100170.63;10403647;28;21135;-75
2023/03/16 17:11:42;;;;;;;5.75;2.03;;;;;;;8.09;42.03;100180.59;10406276;28;20053;-74
2023/03/16 17:16:47;;;;;;;2.72;1.80;;;;;;;7.81;42.76;100170.19;10405208;28;21912;-75
2023/03/16 17:21:51;;;;;;;4.63;2.97;;;;;;;7.71;43.31;100167.34;10387695;28;20530;-73
2023/03/16 17:26:57;;;;;;;2.95;2.53;;;;;;;7.71;43.69;100162.00;10396348;28;20072;-75
2023/03/16 17:32:02;;;;;;;2.90;2.22;;;;;;;7.46;44.27;100165.56;10386362;28;20484;-75
2023/03/16 17:37:07;;;;;;;4.03;2.40;;;;;;;7.35;44.73;100177.06;10399330;28;20055;-75
2023/03/16 17:42:14;;;;;;;4.35;1.80;;;;;;;7.20;45.41;100176.28;10408550;28;20112;-75
2023/03/16 17:47:20;;;;;;;4.90;2.63;;;;;;;7.08;46.06;100157.63;10400992;28;20549;-75
2023/03/16 17:52:25;;;;;;;4.57;2.40;;;;;;;7.22;45.79;100163.69;10409855;28;20056;-75
2023/03/16 17:57:32;;;;;;;6.05;2.85;;;;;;;7.04;46.67;100165.81;10406676;28;20056;-75
2023/03/16 18:02:39;;;;;;;3.80;2.30;;;;;;;7.08;46.70;100170.97;10399108;28;20044;-75
2023/03/16 18:07:42;;;;;;;4.88;2.13;;;;;;;6.96;47.08;100156.66;10408300;28;20124;-76
2023/03/16 18:12:49;;;;;;;2.28;2.08;;;;;;;6.94;47.37;100161.22;10405391;28;20566;-75
2023/03/16 18:17:52;;;;;;;3.38;2.22;;;;;;;6.95;47.52;100152.28;10403679;28;20053;-75
2023/03/16 18:22:55;;;;;;;9.07;5.22;;;;;;;6.88;48.02;100161.66;10410363;28;20167;-75
2023/03/16 18:28:01;;;;;;;6.60;2.47;;;;;;;6.83;48.24;100156.63;10395661;28;21248;-75
2023/03/16 18:33:06;;;;;;;4.63;2.30;;;;;;;6.73;48.59;100166.22;10405469;28;20183;-75
2023/03/16 18:38:17;;;;;;;6.10;2.92;;;;;;;6.76;48.76;100172.19;10404988;28;20038;-75
2023/03/16 18:43:22;;;;;;;6.13;3.50;;;;;;;6.79;48.93;100163.97;10400854;28;20045;-75
2023/03/16 18:48:30;;;;;;;8.27;3.83;;;;;;;6.75;49.32;100164.31;10406192;28;20179;-74
2023/03/16 18:53:33;;;;;;;6.75;3.20;;;;;;;6.70;49.48;100159.28;10397272;28;20052;-75
2023/03/16 18:58:37;;;;;;;9.23;4.15;;;;;;;6.58;50.25;100173.44;10406415;28;20057;-76
2023/03/16 19:03:43;;;;;;;7.35;4.20;;;;;;;6.94;49.62;100175.47;10406289;28;20041;-75
2023/03/16 19:08:46;;;;;;;9.63;5.32;;;;;;;6.98;49.89;100170.75;10392731;28;20049;-74
2023/03/16 19:13:52;;;;;;;7.82;4.47;;;;;;;7.08;50.10;100162.97;10403287;28;20053;-74
2023/03/16 19:18:56;;;;;;;5.95;3.47;;;;;;;7.16;50.40;100168.59;10405865;28;20422;-74
2023/03/16 19:24:02;;;;;;;9.77;5.32;;;;;;;6.99;50.89;100175.13;10398520;28;20064;-75
2023/03/16 19:29:10;;;;;;;6.32;4.68;;;;;;;7.13;50.62;100169.69;10405378;28;20703;-74
2023/03/16 19:34:16;;;;;;;6.78;4.35;;;;;;;6.82;51.69;100150.41;10402612;28;20071;-74
2023/03/16 19:39:20;;;;;;;7.57;4.03;;;;;;;6.98;51.65;100142.22;10396732;28;20123;-75
2023/03/16 19:44:27;;;;;;;7.38;3.95;;;;;;;6.88;52.11;100142.97;10407273;28;20082;-75
2023/03/16 19:49:30;;;;;;;5.78;4.00;;;;;;;6.92;52.23;100137.31;10396952;28;20049;-75
2023/03/16 19:54:33;;;;;;;9.63;5.47;;;;;;;6.93;52.10;100122.16;10401768;28;20045;-75
2023/03/16 19:59:38;;;;;;;7.68;4.35;;;;;;;6.79;52.49;100123.06;10383938;28;20045;-74
2023/03/16 20:04:41;;;;;;;7.32;4.70;;;;;;;6.83;52.77;100119.25;10381912;28;20669;-76
2023/03/16 20:09:44;;;;;;;11.20;4.28;;;;;;;6.77;52.72;100116.97;10393015;28;20668;-74
2023/03/16 20:14:50;;;;;;;6.97;4.43;;;;;;;6.85;52.64;100125.31;10389109;28;20045;-75
2023/03/16 20:19:52;;;;;;;7.53;4.82;;;;;;;6.81;52.69;100122.00;10389978;28;21166;-74
2023/03/16 20:24:56;;;;;;;6.72;2.95;;;;;;;6.68;53.07;100109.63;10391434;28;20167;-75
2023/03/16 20:30:01;;;;;;;4.97;4.13;;;;;;;6.61;53.25;100111.88;10393596;28;21762;-75
2023/03/16 20:35:13;;;;;;;6.78;4.30;;;;;;;6.78;53.05;100114.22;10390101;28;20053;-76
2023/03/16 20:40:17;;;;;;;4.70;3.70;;;;;;;6.60;53.31;100116.31;10399668;28;20132;-75
2023/03/16 20:45:24;;;;;;;5.10;3.47;;;;;;;6.82;53.11;100090.81;10395608;28;20720;-74
2023/03/16 20:50:29;;;;;;;6.57;3.75;;;;;;;6.75;53.21;100087.75;10398682;28;20048;-75
2023/03/16 20:55:33;;;;;;;6.85;3.72;;;;;;;6.63;53.40;100081.41;10404601;28;20041;-75
2023/03/16 21:00:38;;;;;;;5.38;3.67;;;;;;;6.84;53.27;100063.06;10392326;28;20112;-74
2023/03/16 21:05:41;;;;;;;6.82;3.85;;;;;;;6.81;53.18;100065.94;10404183;28;20522;-75
2023/03/16 21:10:46;;;;;;;6.75;3.55;;;;;;;6.80;53.21;100050.91;10394802;28;20071;-76
2023/03/16 21:15:51;;;;;;;7.63;3.50;;;;;;;6.80;53.10;100039.34;10390822;28;20042;-74
2023/03/16 21:20:55;;;;;;;5.25;4.00;;;;;;;6.73;53.51;100044.28;10396142;28;20082;-74
2023/03/16 21:26:02;;;;;;;5.35;3.60;;;;;;;6.64;53.64;100036.91;10394652;28;20095;-75
2023/03/16 21:31:07;;;;;;;7.55;4.53;;;;;;;6.62;53.79;100028.16;10393440;28;20095;-75
2023/03/16 21:36:14;;;;;;;7.10;4.15;;;;;;;6.70;53.62;100027.63;10392907;28;20132;-75
2023/03/16 21:41:17;;;;;;;5.68;4.40;;;;;;;6.58;53.94;100021.31;10392757;28;20132;-75
2023/03/16 21:46:23;;;;;;;5.82;3.67;;;;;;;6.68;53.95;100016.19;10393728;28;20056;-75
2023/03/16 21:51:30;;;;;;;5.88;3.58;;;;;;;6.50;54.19;100015.66;10420736;28;20155;-75
2023/03/16 21:56:33;;;;;;;6.57;3.53;;;;;;;6.52;54.13;99995.91;10425032;28;20041;-75
2023/03/16 22:01:38;;;;;;;4.65;3.05;;;;;;;6.49;54.31;99998.81;10436269;28;20080;-75
2023/03/16 22:07:00;;;;;;;5.53;3.88;;;;;;;6.55;53.99;99994.84;10433586;28;20049;-76
2023/03/16 22:12:03;;;;;;;7.03;3.72;;;;;;;6.48;54.46;99999.78;10434381;28;20072;-75
2023/03/16 22:17:19;;;;;;;5.03;3.72;;;;;;;6.72;53.61;99969.63;10436103;28;20048;-74
2023/03/16 22:22:21;;;;;;;6.10;3.17;;;;;;;6.71;53.71;99960.78;10433507;28;20037;-74
2023/03/16 22:27:25;;;;;;;6.05;3.60;;;;;;;6.68;53.69;99965.47;10430361;28;20076;-74
2023/03/16 22:32:29;;;;;;;4.68;3.42;;;;;;;6.75;53.63;99975.63;10437754;28;20065;-74
2023/03/16 22:37:32;;;;;;;4.32;3.40;;;;;;;6.58;53.95;99967.94;10443024;28;20041;-75
2023/03/16 22:42:37;;;;;;;5.50;3.55;;;;;;;6.50;54.00;99972.97;10449350;28;20041;-74
2023/03/16 22:47:41;;;;;;;5.50;3.67;;;;;;;6.34;54.73;99981.22;10448920;23;20041;-76
2023/03/16 22:52:47;;;;;;;5.70;3.88;;;;;;;6.36;54.58;99961.47;10425213;28;20041;-76
2023/03/16 22:57:53;;;;;;;6.25;3.70;;;;;;;6.21;54.79;99943.88;10436265;28;20038;-76
2023/03/16 23:02:58;;;;;;;5.05;3.75;;;;;;;6.27;54.65;99938.09;10427844;28;20053;-75
2023/03/16 23:08:02;;;;;;;7.28;3.72;;;;;;;6.31;54.38;99922.75;10429762;28;20565;-76
2023/03/16 23:13:14;;;;;;;5.32;3.50;;;;;;;6.21;54.44;99922.53;10434005;28;20037;-75
2023/03/16 23:18:20;;;;;;;8.63;3.77;;;;;;;6.22;54.44;99923.38;10417071;28;20470;-76
2023/03/16 23:23:23;;;;;;;5.07;3.92;;;;;;;6.30;54.05;99918.34;10430952;28;20117;-74
2023/03/16 23:28:26;;;;;;;6.03;2.88;;;;;;;6.16;54.26;99925.50;10429491;28;20079;-77
2023/03/16 23:33:30;;;;;;;5.78;3.75;;;;;;;6.26;54.21;99931.06;10424328;28;20033;-76
2023/03/16 23:38:33;;;;;;;8.38;3.72;;;;;;;6.30;53.90;99932.53;10424232;28;20601;-76
2023/03/16 23:43:36;;;;;;;3.83;3.10;;;;;;;6.29;53.81;99920.19;10423499;28;20415;-76
2023/03/16 23:48:44;;;;;;;5.10;3.05;;;;;;;6.36;53.83;99923.25;10417827;28;20037;-76
2023/03/16 23:53:47;;;;;;;5.28;3.72;;;;;;;6.25;54.13;99918.66;10424702;28;20049;-76